Gulf Stream, Florida
Current Conditions -  °F | °C
As of 1:53 PM on Thursday 27 Nov 2014 (Local Time) from KBCT Reporting Station
Clear Clear  
Wind Chill: 73°   Ceiling: Unl
Heat Index: 73°   Visibility: 10mi
Dew Point: 41°   Wind: 10mph
Humidity: 31%   Direction: 340°NNW
Pressure: 30.16"   Gusts: 17mph
Location:  26.4557°N, 80.0677°W
Report Text: KBCT 271853Z 34009G15KT 10SM CLR 23/05 A3016
Loading
Personal Weather Stations






























Interactive Weather Map New forecast layout! Learn more

10-Day Weather Forecast

Advertisements
Track Severe Weather on mobile